Time;durP1;ratioP1;P1;durP2;ratioP2;P2;SDS_P1;SDS_P2;PMS_P1;PMS_P2;Temp;Humidity;BMP_temperature;BMP_pressure;BME280_temperature;BME280_humidity;BME280_pressure;Samples;Min_cycle;Max_cycle;Signal;HPM_P1;HPM_P2
2022/06/04 00:01:02;;;;;;;7.65;7.13;;;17.40;99.90;;;18.26;85.13;97882.00;5220384;28;20629;-56
2022/06/04 00:03:35;;;;;;;7.45;6.95;;;17.40;99.90;;;18.30;85.23;97876.06;5219589;28;20213;-56
2022/06/04 00:06:09;;;;;;;6.93;6.43;;;17.50;99.90;;;18.30;85.00;97878.66;5220425;28;20293;-56
2022/06/04 00:08:42;;;;;;;6.88;6.38;;;17.40;99.90;;;18.20;84.38;97879.25;5218443;28;20244;-55
2022/06/04 00:16:57;;;;;;;6.75;6.35;;;17.40;99.90;;;18.17;83.84;97898.16;5220449;28;20241;-56
2022/06/04 00:19:30;;;;;;;6.93;6.43;;;17.30;99.90;;;18.08;84.26;97905.63;5214664;28;20606;-56
2022/06/04 00:22:06;;;;;;;6.57;6.07;;;17.20;99.90;;;18.08;85.28;97899.59;5215333;28;20244;-57
2022/06/04 00:24:41;;;;;;;7.07;6.53;;;17.20;99.90;;;18.01;84.74;97911.47;5221170;28;20209;-57
2022/06/04 00:27:17;;;;;;;6.65;6.18;;;17.20;99.90;;;18.05;85.27;97895.19;5222710;28;20954;-57
2022/06/04 00:29:50;;;;;;;6.70;6.10;;;17.20;99.90;;;18.06;84.79;97888.34;5223485;28;20250;-57
2022/06/04 00:32:23;;;;;;;7.40;6.80;;;17.10;99.90;;;17.94;85.09;97884.56;5222724;28;20258;-57
2022/06/04 00:34:56;;;;;;;6.60;6.10;;;17.00;99.90;;;17.99;85.77;97888.16;5218966;28;20721;-58
2022/06/04 00:37:34;;;;;;;7.00;6.40;;;17.10;99.90;;;17.98;86.00;97886.41;5223884;28;20324;-58
2022/06/04 00:40:10;;;;;;;6.47;6.07;;;17.10;99.90;;;17.89;85.64;97891.31;5215932;28;20205;-56
2022/06/04 00:42:43;;;;;;;6.90;6.40;;;17.00;99.90;;;17.90;86.70;97898.22;5223906;28;20661;-56
2022/06/04 00:46:16;;;;;;;6.68;6.07;;;17.10;99.90;;;17.87;86.09;97898.16;5222457;28;20267;-58
2022/06/04 00:48:49;;;;;;;6.47;6.03;;;17.00;99.90;;;17.87;85.76;97903.31;5219561;28;20300;-57
2022/06/04 00:51:23;;;;;;;7.05;6.55;;;17.00;99.90;;;17.84;85.18;97913.56;5226005;28;20555;-57
2022/06/04 00:53:58;;;;;;;7.07;6.57;;;17.00;99.90;;;17.90;85.63;97911.16;5221981;28;20232;-57
2022/06/04 00:56:43;;;;;;;6.88;6.38;;;17.00;99.90;;;17.84;86.42;97911.00;5219598;28;20228;-53
2022/06/04 00:59:30;;;;;;;7.40;6.90;;;17.00;99.90;;;17.74;85.95;97893.41;5215213;28;20206;-54
2022/06/04 01:02:12;;;;;;;6.63;6.03;;;16.90;99.90;;;17.64;85.61;97891.41;5217363;28;20201;-52
2022/06/04 01:04:56;;;;;;;6.60;6.20;;;16.70;99.90;;;17.64;85.99;97905.19;5219869;28;20193;-56
2022/06/04 01:07:54;;;;;;;7.38;6.88;;;16.70;99.90;;;17.60;86.36;97899.88;5219049;28;20221;-52
2022/06/04 01:10:46;;;;;;;7.43;6.82;;;16.70;99.90;;;17.54;86.63;97901.47;5213628;28;20649;-56
2022/06/04 01:13:38;;;;;;;6.57;6.07;;;16.60;99.90;;;17.61;87.13;97906.81;5220730;28;20244;-53
2022/06/04 01:16:20;;;;;;;6.72;6.25;;;16.70;99.90;;;17.56;87.53;97898.91;5217561;28;20355;-55
2022/06/04 01:19:02;;;;;;;6.80;6.30;;;16.70;99.90;;;17.56;87.06;97892.03;5222155;28;20700;-54
2022/06/04 01:21:44;;;;;;;6.72;6.32;;;16.70;99.90;;;17.56;87.05;97886.88;5218879;28;20220;-55
2022/06/04 01:24:48;;;;;;;7.68;7.00;;;16.70;99.90;;;17.54;87.67;97892.81;5220659;28;20620;-57
2022/06/04 01:27:27;;;;;;;7.38;6.78;;;16.70;99.90;;;17.62;88.38;97890.47;5214174;28;20346;-56
2022/06/04 01:30:08;;;;;;;6.60;6.03;;;16.80;99.90;;;17.58;88.15;97905.03;5209654;28;20248;-57
2022/06/04 01:32:45;;;;;;;7.22;6.63;;;16.80;99.90;;;17.54;86.81;97888.53;5217215;28;20255;-57
2022/06/04 01:35:24;;;;;;;7.18;6.57;;;16.70;99.90;;;17.45;86.93;97885.66;5221007;28;20212;-56
2022/06/04 01:38:03;;;;;;;7.25;6.65;;;16.60;99.90;;;17.47;87.49;97889.19;5217309;28;20324;-59
2022/06/04 01:41:06;;;;;;;6.38;5.78;;;16.60;99.90;;;17.49;87.50;97889.25;5213484;28;20198;-54
2022/06/04 01:43:54;;;;;;;6.20;5.80;;;16.60;99.90;;;17.46;87.92;97900.34;5220617;28;20200;-54
2022/06/04 01:46:33;;;;;;;6.78;6.28;;;16.70;99.90;;;17.48;88.03;97892.63;5221642;28;20239;-58
2022/06/04 01:49:15;;;;;;;6.53;6.13;;;16.70;99.90;;;17.41;88.15;97898.47;5218008;28;20696;-55
2022/06/04 01:51:52;;;;;;;7.00;6.50;;;16.70;99.90;;;17.37;87.92;97900.09;5219340;28;20225;-55
2022/06/04 01:54:33;;;;;;;6.60;6.10;;;16.60;99.90;;;17.35;88.98;97906.91;5211417;28;20208;-55
2022/06/04 01:57:11;;;;;;;6.72;6.32;;;16.60;99.90;;;17.34;87.99;97905.16;5210891;28;20295;-55
2022/06/04 01:59:51;;;;;;;6.85;6.35;;;16.60;99.90;;;17.31;87.19;97900.78;5217623;28;20213;-51
2022/06/04 02:02:30;;;;;;;6.40;6.00;;;16.50;99.90;;;17.29;87.72;97896.38;5214731;28;20680;-54
2022/06/04 02:05:08;;;;;;;7.47;6.95;;;16.50;99.90;;;17.30;87.81;97891.25;5220644;28;20247;-58
2022/06/04 02:07:46;;;;;;;6.10;5.60;;;16.50;99.90;;;17.28;86.69;97889.44;5212956;28;20244;-56
2022/06/04 02:10:25;;;;;;;6.47;6.07;;;16.50;99.90;;;17.32;86.06;97899.06;5215968;28;20197;-58
2022/06/04 02:13:01;;;;;;;5.97;5.57;;;16.50;99.90;;;17.28;86.30;97902.34;5210642;28;20616;-55
2022/06/04 02:15:42;;;;;;;6.57;6.07;;;16.50;99.90;;;17.23;86.64;97891.03;5214256;28;20209;-58
2022/06/04 02:18:15;;;;;;;6.68;6.07;;;16.40;99.90;;;17.10;86.82;97885.44;5208069;28;20260;-55
2022/06/04 02:20:48;;;;;;;6.63;6.05;;;16.30;99.90;;;17.13;87.06;97883.81;5215014;28;20253;-55
2022/06/04 02:23:22;;;;;;;6.32;5.90;;;16.30;99.90;;;17.13;86.67;97878.63;5215770;28;22408;-51
2022/06/04 02:25:55;;;;;;;7.55;6.88;;;16.30;99.90;;;17.11;87.17;97882.06;5210683;28;20630;-54
2022/06/04 02:28:29;;;;;;;7.13;6.53;;;16.30;99.90;;;17.08;87.04;97878.47;5213971;28;20643;-51
2022/06/04 02:31:11;;;;;;;6.72;6.32;;;16.30;99.90;;;17.04;87.04;97874.94;5212398;28;20216;-54
2022/06/04 02:33:55;;;;;;;7.10;6.50;;;16.20;99.90;;;16.97;87.31;97870.41;5214369;28;20220;-51
2022/06/04 02:36:37;;;;;;;7.85;7.25;;;16.10;99.90;;;16.97;88.23;97873.00;5220222;28;20209;-53
2022/06/04 02:39:20;;;;;;;7.50;6.88;;;16.20;99.90;;;16.98;88.37;97874.75;5209936;28;20356;-52
2022/06/04 02:42:04;;;;;;;7.05;6.45;;;16.20;99.90;;;16.99;88.27;97876.47;5209534;28;20225;-57
2022/06/04 02:44:46;;;;;;;6.85;6.30;;;16.20;99.90;;;17.00;89.10;97878.25;5211961;28;20220;-52
2022/06/04 02:47:26;;;;;;;6.93;6.32;;;16.30;99.90;;;17.00;88.95;97878.25;5217473;28;20244;-52
2022/06/04 02:50:08;;;;;;;6.85;6.35;;;16.30;99.90;;;16.93;88.89;97878.00;5209572;28;20193;-53
2022/06/04 02:52:42;;;;;;;6.78;6.30;;;16.30;99.90;;;16.97;89.11;97887.59;5210623;28;20559;-53
2022/06/04 02:55:19;;;;;;;6.80;6.30;;;16.20;99.90;;;16.95;88.31;97889.25;5210677;28;20646;-53
2022/06/04 02:57:59;;;;;;;6.82;6.32;;;16.20;99.90;;;16.94;88.57;97898.72;5209004;28;20256;-57
2022/06/04 03:00:33;;;;;;;6.75;6.25;;;16.20;99.90;;;16.96;87.16;97891.88;5213170;28;20261;-54
2022/06/04 03:03:12;;;;;;;6.53;6.03;;;16.10;99.90;;;16.89;86.53;97895.97;5209549;28;20314;-55
2022/06/04 03:05:54;;;;;;;6.65;6.13;;;16.00;99.90;;;16.88;86.02;97901.06;5218992;28;20572;-58
2022/06/04 03:08:30;;;;;;;5.93;5.53;;;15.90;99.90;;;16.82;86.94;97894.00;5219006;28;20280;-56
2022/06/04 03:11:03;;;;;;;6.50;6.00;;;16.00;99.90;;;16.79;87.03;97887.88;5210185;28;20236;-50
2022/06/04 03:13:36;;;;;;;6.53;6.03;;;15.90;99.90;;;16.79;86.71;97887.88;5217624;28;20612;-54
2022/06/04 03:16:10;;;;;;;6.20;5.80;;;15.90;99.90;;;16.71;87.38;97885.03;5217187;28;20232;-51
2022/06/04 03:18:45;;;;;;;5.95;5.45;;;15.90;99.90;;;16.67;87.00;97881.44;5209483;28;20743;-59
2022/06/04 03:21:18;;;;;;;6.32;5.82;;;15.90;99.90;;;16.65;86.38;97877.94;5209601;28;20693;-55
2022/06/04 03:23:51;;;;;;;6.68;6.28;;;15.80;99.90;;;16.64;87.05;97883.91;5211586;28;20594;-54
2022/06/04 03:26:25;;;;;;;6.50;6.10;;;15.90;99.90;;;16.63;87.06;97886.47;5215666;28;20260;-54
2022/06/04 03:28:59;;;;;;;6.30;5.90;;;15.80;99.90;;;16.61;86.41;97883.81;5204729;28;20240;-53
2022/06/04 03:31:33;;;;;;;6.65;6.25;;;15.80;99.90;;;16.58;86.90;97883.72;5212239;28;20637;-51
2022/06/04 03:34:08;;;;;;;6.65;6.15;;;15.80;99.90;;;16.49;87.01;97870.50;5213991;28;20211;-58
2022/06/04 03:36:42;;;;;;;7.13;6.63;;;15.60;99.90;;;16.46;86.88;97873.00;5209116;28;20359;-54
2022/06/04 03:39:15;;;;;;;6.68;6.18;;;15.60;99.90;;;16.47;87.68;97879.91;5211323;28;20221;-52
2022/06/04 03:41:48;;;;;;;6.22;5.80;;;15.70;99.90;;;16.49;88.45;97878.25;5211687;28;20208;-54
2022/06/04 03:44:21;;;;;;;6.80;6.32;;;15.70;99.90;;;16.55;87.68;97881.03;5210565;28;20229;-53
2022/06/04 03:46:54;;;;;;;7.30;6.60;;;15.80;99.90;;;16.52;87.97;97880.94;5212811;28;20680;-54
2022/06/04 03:49:29;;;;;;;7.10;6.60;;;15.70;99.90;;;16.53;88.25;97880.09;5218811;28;20630;-55
2022/06/04 03:52:02;;;;;;;6.85;6.45;;;15.80;99.90;;;16.62;88.70;97884.69;5222858;28;20237;-54
2022/06/04 03:54:53;;;;;;;7.50;6.80;;;15.90;99.90;;;16.71;87.77;97885.03;5222947;28;20232;-58
2022/06/04 03:57:48;;;;;;;7.45;6.95;;;16.00;99.90;;;16.69;88.12;97890.97;5213226;28;20349;-51
2022/06/04 04:00:27;;;;;;;6.90;6.32;;;15.90;99.90;;;16.66;87.81;97900.34;5218578;28;20296;-56
2022/06/04 04:03:04;;;;;;;7.65;7.03;;;15.80;99.90;;;16.63;88.30;97907.13;5219721;28;20289;-53
2022/06/04 04:05:50;;;;;;;7.22;6.68;;;15.80;99.90;;;16.61;88.31;97925.13;5214472;28;20278;-54
2022/06/04 04:08:27;;;;;;;7.40;6.80;;;15.80;99.90;;;16.61;88.80;97919.94;5223918;28;20256;-56
2022/06/04 04:11:00;;;;;;;6.97;6.45;;;15.80;99.90;;;16.67;88.67;97908.97;5219232;28;20241;-53
2022/06/04 04:13:33;;;;;;;7.38;6.80;;;16.00;99.90;;;16.64;87.53;97914.88;5222793;28;20271;-53
2022/06/04 04:16:08;;;;;;;7.43;6.93;;;15.90;99.90;;;16.74;88.21;97920.34;5217926;28;20236;-60
2022/06/04 04:18:42;;;;;;;7.50;6.90;;;16.00;99.90;;;16.84;87.90;97922.47;5224946;28;20212;-54
2022/06/04 04:21:20;;;;;;;7.90;7.30;;;16.10;99.90;;;16.92;88.40;97917.56;5218664;28;20313;-56
2022/06/04 04:23:53;;;;;;;7.63;6.93;;;16.20;99.90;;;16.99;88.36;97917.78;5224446;28;21061;-55
2022/06/04 04:26:26;;;;;;;7.80;7.20;;;16.30;99.90;;;17.08;87.71;97912.97;5223194;28;20303;-57
2022/06/04 04:28:59;;;;;;;7.97;7.38;;;16.30;99.90;;;17.13;87.89;97919.97;5220926;28;21003;-55
2022/06/04 04:31:37;;;;;;;7.82;7.22;;;16.40;99.90;;;17.19;87.23;97915.00;5217403;28;20332;-54
2022/06/04 04:34:10;;;;;;;7.05;6.45;;;16.40;99.90;;;17.31;86.83;97917.94;5218927;28;20197;-58
2022/06/04 04:36:46;;;;;;;7.53;7.03;;;16.50;99.90;;;17.42;86.98;97914.00;5218517;28;20720;-55
2022/06/04 04:39:19;;;;;;;7.28;6.68;;;16.60;99.90;;;17.54;85.94;97916.06;5215242;28;20661;-55
2022/06/04 04:41:56;;;;;;;7.15;6.50;;;16.70;99.90;;;17.57;85.32;97911.03;5216041;28;20194;-56
2022/06/04 04:44:29;;;;;;;6.95;6.50;;;16.80;99.90;;;17.66;84.62;97900.97;5217251;28;20197;-51
2022/06/04 04:47:02;;;;;;;6.75;6.32;;;16.80;99.90;;;17.79;84.25;97907.38;5218025;28;20280;-56
2022/06/04 04:49:35;;;;;;;7.28;6.68;;;16.80;99.90;;;17.82;84.24;97899.72;5216751;28;20271;-57
2022/06/04 04:52:10;;;;;;;7.25;6.65;;;17.00;99.90;;;17.78;84.38;97903.06;5226563;28;20221;-52
2022/06/04 04:54:43;;;;;;;8.05;7.45;;;17.00;99.90;;;17.78;83.78;97895.31;5216941;28;20201;-55
2022/06/04 04:57:16;;;;;;;8.00;7.40;;;16.90;99.90;;;17.96;84.13;97882.88;5218850;28;20593;-54
2022/06/04 04:59:49;;;;;;;7.20;6.75;;;17.20;99.90;;;18.37;82.44;97885.75;5218572;28;20653;-57
2022/06/04 05:02:23;;;;;;;7.07;6.57;;;17.60;99.90;;;18.97;79.86;97892.50;5212755;28;20229;-55
2022/06/04 05:04:56;;;;;;;7.68;7.07;;;18.20;99.90;;;19.32;77.40;97888.16;5218369;28;20198;-54
2022/06/04 05:07:30;;;;;;;8.48;7.88;;;18.50;99.90;;;19.86;74.41;97885.88;5216738;28;20317;-54
2022/06/04 05:10:04;;;;;;;7.05;6.55;;;18.90;99.90;;;20.33;72.71;97879.03;5213442;28;20638;-55
2022/06/04 05:12:37;;;;;;;8.18;7.43;;;19.20;99.90;;;20.78;70.13;97882.47;5216303;28;20198;-55
2022/06/04 05:15:12;;;;;;;7.55;6.95;;;19.70;99.90;;;21.07;70.11;97877.75;5217159;28;20240;-55
2022/06/04 05:17:45;;;;;;;7.07;6.57;;;20.00;99.90;;;21.46;68.47;97882.72;5216000;28;20278;-55
2022/06/04 05:20:19;;;;;;;7.70;7.10;;;20.20;99.90;;;21.82;67.33;97884.91;5217102;28;20323;-55
2022/06/04 05:22:53;;;;;;;7.70;7.03;;;20.60;99.90;;;22.38;65.03;97885.63;5222796;28;20197;-52
2022/06/04 05:25:27;;;;;;;7.95;7.25;;;21.00;99.90;;;22.12;65.25;97898.28;5221042;28;20719;-56
2022/06/04 05:28:07;;;;;;;7.43;6.90;;;21.30;99.90;;;22.33;64.54;97893.38;5221312;28;20213;-54
2022/06/04 05:30:40;;;;;;;7.75;7.05;;;20.90;99.90;;;22.17;64.61;97889.72;5216548;28;20200;-53
2022/06/04 05:33:13;;;;;;;7.57;6.97;;;20.70;99.90;;;21.91;66.49;97902.38;5217199;28;20197;-57
2022/06/04 05:35:46;;;;;;;7.20;6.53;;;20.40;99.90;;;21.55;67.49;97901.03;5216353;28;20217;-53
2022/06/04 05:38:21;;;;;;;7.43;6.82;;;20.10;99.90;;;21.34;69.18;97895.47;5212624;28;20743;-53
2022/06/04 05:41:00;;;;;;;7.13;6.55;;;20.00;99.90;;;21.01;70.00;97896.72;5212018;28;20221;-55
2022/06/04 05:43:34;;;;;;;7.88;7.22;;;19.70;99.90;;;20.78;71.13;97896.34;5215980;28;20197;-57
2022/06/04 05:46:12;;;;;;;7.60;7.07;;;19.50;99.90;;;20.57;72.53;97893.34;5219227;28;20661;-55
2022/06/04 05:48:46;;;;;;;6.80;6.30;;;19.30;99.90;;;20.40;73.27;97900.78;5213901;28;20214;-55
2022/06/04 05:51:22;;;;;;;7.90;7.30;;;19.10;99.90;;;20.24;74.90;97904.81;5215347;28;20643;-57
2022/06/04 05:53:58;;;;;;;7.47;6.85;;;19.00;99.90;;;20.11;74.89;97908.88;5216679;28;20224;-58
2022/06/04 05:56:41;;;;;;;7.50;7.00;;;18.90;99.90;;;20.09;74.99;97920.06;5216987;28;20840;-54
2022/06/04 05:59:17;;;;;;;7.55;7.00;;;18.90;99.90;;;20.06;75.16;97933.88;5216146;28;20201;-59
2022/06/04 06:01:51;;;;;;;7.90;7.20;;;18.90;99.90;;;20.02;75.67;97951.09;5218696;28;20283;-53
2022/06/04 06:04:26;;;;;;;8.07;7.47;;;18.90;99.90;;;19.95;75.92;97954.41;5216292;28;20211;-54
2022/06/04 06:07:00;;;;;;;7.95;7.35;;;18.80;99.90;;;19.92;75.82;97954.34;5220555;28;20220;-57
2022/06/04 06:09:35;;;;;;;8.68;7.88;;;18.70;99.90;;;19.85;76.56;97951.56;5213779;28;20259;-56
2022/06/04 06:12:09;;;;;;;8.05;7.45;;;18.70;99.90;;;19.84;76.47;97957.63;5217308;28;20193;-56
2022/06/04 06:14:42;;;;;;;8.50;7.80;;;18.70;99.90;;;19.83;76.95;97961.94;5216362;28;20205;-57
2022/06/04 06:17:15;;;;;;;8.82;8.02;;;18.70;99.90;;;19.83;77.02;97968.81;5216095;28;20266;-55
2022/06/04 06:19:49;;;;;;;8.75;8.13;;;18.70;99.90;;;19.93;77.17;97970.78;5219623;28;20197;-55
2022/06/04 06:22:22;;;;;;;8.25;7.55;;;18.80;99.90;;;19.95;76.90;97971.69;5219278;28;20300;-57
2022/06/04 06:24:56;;;;;;;8.50;7.80;;;18.90;99.90;;;19.94;77.08;97995.88;5214851;28;20228;-57
2022/06/04 06:27:30;;;;;;;8.30;7.50;;;18.80;99.90;;;20.03;77.10;98015.13;5217425;28;20640;-54
2022/06/04 06:30:03;;;;;;;8.50;7.85;;;19.00;99.90;;;20.04;77.37;98026.38;5217458;28;20288;-55
2022/06/04 06:32:36;;;;;;;8.07;7.38;;;19.00;99.90;;;20.09;77.53;98061.13;5218980;28;20233;-58
2022/06/04 06:35:10;;;;;;;8.20;7.60;;;19.00;99.90;;;20.23;77.42;98056.19;5219497;28;20229;-58
2022/06/04 06:37:43;;;;;;;7.13;6.60;;;19.10;99.90;;;20.24;77.80;98058.84;5216752;28;20303;-58
2022/06/04 06:40:18;;;;;;;7.18;6.60;;;19.10;99.90;;;20.19;78.72;98068.25;5213395;28;20229;-56
2022/06/04 06:42:51;;;;;;;7.53;6.90;;;19.10;99.90;;;20.22;79.03;98076.09;5218006;28;20711;-55
2022/06/04 06:45:24;;;;;;;7.05;6.53;;;19.20;99.90;;;20.25;79.46;98091.75;5211589;28;20233;-57
2022/06/04 06:47:57;;;;;;;7.47;6.75;;;19.30;99.90;;;20.21;79.88;98097.72;5218362;28;20255;-57
2022/06/04 06:50:30;;;;;;;7.15;6.63;;;19.30;99.90;;;20.22;80.37;98099.47;5215261;28;20756;-52
2022/06/04 06:53:04;;;;;;;6.53;6.03;;;19.30;99.90;;;20.27;78.81;98098.72;5212357;28;20197;-54
2022/06/04 06:55:38;;;;;;;6.55;6.15;;;19.30;99.90;;;20.29;79.27;98100.50;5213922;28;20198;-54
2022/06/04 06:58:13;;;;;;;6.90;6.40;;;19.30;99.90;;;20.21;80.86;98091.66;5216314;28;20227;-55
2022/06/04 07:00:46;;;;;;;7.07;6.53;;;19.30;99.90;;;20.11;84.13;98105.25;5214455;28;20298;-54
2022/06/04 07:03:19;;;;;;;7.95;7.18;;;19.30;99.90;;;20.01;84.74;98106.78;5215188;28;20245;-59
2022/06/04 07:05:54;;;;;;;7.60;6.90;;;19.20;99.90;;;19.86;86.83;98109.88;5217351;28;20193;-58
2022/06/04 07:08:27;;;;;;;7.88;7.07;;;19.10;99.90;;;19.72;87.85;98101.75;5212814;28;20217;-56
2022/06/04 07:11:01;;;;;;;7.85;7.15;;;18.90;99.90;;;19.54;89.39;98098.63;5216674;28;20288;-57
2022/06/04 07:13:34;;;;;;;7.78;7.15;;;18.80;99.90;;;19.37;90.07;98080.06;5212323;28;20228;-58
2022/06/04 07:16:07;;;;;;;8.88;8.15;;;18.70;99.90;;;19.26;92.05;98069.44;5216209;28;20255;-57
2022/06/04 07:18:40;;;;;;;9.77;8.55;;;18.60;99.90;;;19.04;93.86;98056.75;5219327;28;20217;-56
2022/06/04 07:21:14;;;;;;;9.25;8.40;;;18.40;99.90;;;18.88;95.43;98033.00;5220576;28;20319;-57
2022/06/04 07:23:47;;;;;;;10.25;9.38;;;18.30;99.90;;;18.65;97.18;98001.25;5223759;28;20328;-59
2022/06/04 07:26:23;;;;;;;9.02;8.23;;;18.10;99.90;;;18.60;98.07;97981.25;5224745;28;20611;-59
2022/06/04 07:28:57;;;;;;;9.50;8.65;;;18.00;99.90;;;18.56;99.47;97971.66;5224470;28;20298;-59
2022/06/04 07:31:31;;;;;;;11.90;10.95;;;18.00;99.90;;;18.56;100.00;97944.06;5223948;28;20201;-57
2022/06/04 07:34:04;;;;;;;10.65;9.82;;;18.00;99.90;;;18.51;100.00;97939.59;5216012;28;20204;-59
2022/06/04 07:36:41;;;;;;;10.98;10.18;;;18.00;99.90;;;18.52;100.00;97946.53;5226270;28;20231;-59
2022/06/04 07:39:18;;;;;;;11.25;10.20;;;17.90;99.90;;;18.56;100.00;97950.94;5218600;28;20637;-60
2022/06/04 07:41:54;;;;;;;10.82;9.93;;;18.00;99.90;;;18.57;100.00;97951.00;5224655;28;20213;-57
2022/06/04 07:44:29;;;;;;;10.88;10.00;;;18.00;99.90;;;18.57;100.00;97934.56;5216137;28;20225;-57
2022/06/04 07:47:02;;;;;;;11.40;10.50;;;18.00;99.90;;;18.62;100.00;97928.69;5217012;28;20221;-60
2022/06/04 07:49:35;;;;;;;11.82;10.82;;;18.00;99.90;;;18.69;100.00;97950.44;5225638;28;20201;-57
2022/06/04 07:52:08;;;;;;;11.85;10.95;;;18.10;99.90;;;18.74;100.00;97960.94;5218985;28;20201;-60
2022/06/04 07:54:42;;;;;;;12.38;11.27;;;18.10;99.90;;;18.80;100.00;97974.06;5223697;28;20499;-58
2022/06/04 07:57:17;;;;;;;11.32;10.32;;;18.20;99.90;;;18.90;100.00;97997.66;5217519;28;20222;-61
2022/06/04 07:59:50;;;;;;;12.57;11.48;;;18.40;99.90;;;19.09;100.00;98009.38;5215530;28;20633;-58
2022/06/04 08:02:24;;;;;;;12.73;11.63;;;18.60;99.90;;;19.41;100.00;98024.00;5223057;28;20233;-58
2022/06/04 08:04:57;;;;;;;13.63;12.55;;;18.90;99.90;;;19.67;100.00;98025.53;5222601;28;20231;-59
2022/06/04 08:07:30;;;;;;;11.23;10.32;;;19.10;99.90;;;19.87;100.00;98027.72;5214229;28;20256;-60
2022/06/04 08:10:05;;;;;;;11.15;10.15;;;19.20;99.90;;;19.96;100.00;98027.94;5214310;28;20283;-61
2022/06/04 08:12:42;;;;;;;10.80;9.80;;;19.30;99.90;;;20.02;100.00;98007.31;5214680;28;20184;-61
2022/06/04 08:15:15;;;;;;;10.43;9.52;;;19.30;99.90;;;19.95;100.00;98001.13;5215130;28;20225;-59
2022/06/04 08:17:49;;;;;;;9.60;8.93;;;19.20;99.90;;;19.99;99.86;97986.47;5217327;28;20308;-59
2022/06/04 08:20:23;;;;;;;9.63;8.90;;;19.20;99.90;;;19.96;98.65;97986.41;5218130;28;20237;-60
2022/06/04 08:22:56;;;;;;;9.27;8.57;;;19.20;99.90;;;20.02;100.00;97977.03;5216738;28;20209;-59
2022/06/04 08:25:29;;;;;;;10.50;9.45;;;19.30;99.90;;;20.13;100.00;97994.56;5214875;28;20292;-60
2022/06/04 08:28:04;;;;;;;10.32;9.52;;;19.40;99.90;;;20.21;98.19;98003.41;5218757;28;20652;-58
2022/06/04 08:30:38;;;;;;;10.43;9.63;;;19.40;99.90;;;20.22;98.83;98016.41;5222532;28;20197;-58
2022/06/04 08:33:12;;;;;;;10.10;9.32;;;19.50;99.90;;;20.23;98.31;98025.06;5218095;28;20202;-57
2022/06/04 08:35:45;;;;;;;10.80;9.85;;;19.50;99.90;;;20.44;98.28;98030.72;5218394;28;20236;-57
2022/06/04 08:38:18;;;;;;;10.88;9.88;;;19.70;99.90;;;20.68;97.15;98030.34;5222243;28;20217;-59
2022/06/04 08:40:54;;;;;;;9.73;8.88;;;19.90;99.90;;;20.89;95.60;98039.44;5219071;28;20225;-59
2022/06/04 08:43:41;;;;;;;9.27;8.57;;;20.10;99.90;;;21.02;94.21;98033.59;5208208;28;20808;-57
2022/06/04 08:46:21;;;;;;;9.18;8.40;;;20.20;99.90;;;21.21;95.36;98029.63;5219948;28;20193;-58
2022/06/04 08:48:57;;;;;;;9.45;8.68;;;20.40;99.90;;;21.40;94.90;98022.16;5220844;28;20214;-59
2022/06/04 08:51:31;;;;;;;9.40;8.70;;;20.60;99.90;;;21.81;94.75;98028.91;5222703;28;20243;-57
2022/06/04 08:57:32;;;;;;;9.82;9.13;;;21.10;99.90;;;22.22;89.76;98025.19;5221901;28;20367;-57
2022/06/04 09:00:07;;;;;;;8.30;7.70;;;21.70;99.90;;;22.75;84.02;98014.56;5216585;28;20646;-61
2022/06/04 09:03:06;;;;;;;8.52;7.93;;;22.00;99.90;;;23.10;79.81;98008.88;5220178;28;20213;-58
2022/06/04 09:06:11;;;;;;;8.13;7.53;;;22.30;99.90;;;23.10;78.22;98003.66;5221376;28;20221;-57
2022/06/04 09:08:54;;;;;;;8.20;7.60;;;22.20;99.90;;;23.01;79.74;98008.81;5220734;28;20290;-54
2022/06/04 09:11:37;;;;;;;7.55;6.95;;;22.00;99.90;;;23.03;77.90;98001.84;5211062;28;20229;-56
2022/06/04 09:14:28;;;;;;;7.70;7.20;;;22.10;99.90;;;22.87;78.30;98006.88;5214795;28;20362;-56
2022/06/04 09:17:06;;;;;;;7.93;7.35;;;22.00;99.90;;;22.94;80.08;98019.09;5217898;28;20288;-55
2022/06/04 09:19:43;;;;;;;8.20;7.55;;;22.00;99.90;;;23.05;81.67;98019.25;5218039;28;20189;-55
2022/06/04 09:22:23;;;;;;;9.48;8.77;;;22.30;99.90;;;23.49;77.57;98012.69;5219743;28;20256;-56
2022/06/04 09:24:56;;;;;;;8.00;7.50;;;22.80;99.90;;;23.70;74.68;98018.13;5214858;28;20205;-56
2022/06/04 09:27:39;;;;;;;7.78;7.28;;;23.10;99.90;;;23.81;77.68;98020.84;5214901;28;20249;-58
2022/06/04 09:30:22;;;;;;;8.07;7.57;;;22.90;99.90;;;23.43;77.76;98023.09;5219519;28;20492;-55
2022/06/04 09:33:31;;;;;;;7.90;7.30;;;22.50;99.90;;;23.34;76.08;98024.75;5216709;28;20305;-58
2022/06/04 09:36:05;;;;;;;8.18;7.43;;;22.50;99.90;;;23.17;76.55;98036.75;5218164;28;20209;-53
2022/06/04 09:38:38;;;;;;;7.00;6.60;;;22.20;99.90;;;23.25;77.12;98034.22;5216538;28;20249;-55
2022/06/04 09:41:18;;;;;;;8.05;7.47;;;22.20;99.90;;;23.29;77.71;98039.50;5221029;28;20237;-56
2022/06/04 09:44:05;;;;;;;8.27;7.65;;;22.30;99.90;;;23.45;76.29;98035.28;5216152;28;20579;-55
2022/06/04 09:46:44;;;;;;;8.32;7.70;;;22.40;99.90;;;23.61;75.62;98034.56;5221610;28;20222;-60
2022/06/04 09:49:35;;;;;;;7.65;7.03;;;22.50;99.90;;;23.73;74.36;98031.19;5219906;28;20676;-60
2022/06/04 09:52:21;;;;;;;7.03;6.53;;;22.50;99.90;;;23.72;74.25;98033.78;5218480;28;20237;-60
2022/06/04 09:54:58;;;;;;;7.38;6.80;;;22.50;99.90;;;24.20;73.59;98040.22;5210436;28;20202;-60
2022/06/04 09:57:36;;;;;;;7.90;7.30;;;23.00;99.90;;;24.43;71.97;98041.22;5215491;28;20212;-60
2022/06/04 10:00:22;;;;;;;7.50;7.03;;;23.50;99.90;;;24.86;69.84;98038.78;5219470;28;20282;-59
2022/06/04 10:02:57;;;;;;;7.78;7.20;;;23.90;99.90;;;25.13;68.81;98032.78;5219281;28;20248;-60
2022/06/04 10:05:33;;;;;;;7.68;7.18;;;24.00;99.90;;;25.12;68.46;98038.00;5217064;28;20679;-60
2022/06/04 10:08:12;;;;;;;7.65;7.18;;;24.00;99.90;;;25.09;67.96;98045.84;5213691;28;20221;-60
2022/06/04 10:10:46;;;;;;;7.93;7.40;;;23.90;99.90;;;24.96;68.22;98031.88;5210604;28;20617;-59
2022/06/04 10:16:20;;;;;;;6.45;6.05;;;23.80;99.90;;;25.07;68.20;98053.69;5218765;28;20246;-60
2022/06/04 10:18:57;;;;;;;7.28;6.70;;;23.80;99.90;;;24.93;67.75;98066.72;5215475;28;20245;-60
2022/06/04 10:21:35;;;;;;;7.07;6.68;;;23.60;99.90;;;24.90;68.14;98071.09;5210157;28;20303;-60
2022/06/04 10:24:23;;;;;;;7.32;6.82;;;23.60;99.90;;;24.85;69.20;98075.41;5212169;28;20271;-60
2022/06/04 10:27:19;;;;;;;7.28;6.78;;;23.50;99.90;;;24.55;69.50;98086.59;5215062;28;20214;-59
2022/06/04 10:30:12;;;;;;;7.22;6.72;;;23.10;99.90;;;24.34;70.60;98082.09;5214373;28;20255;-60
2022/06/04 10:32:59;;;;;;;7.10;6.60;;;23.00;99.90;;;24.15;71.27;98071.56;5215790;28;20198;-59
2022/06/04 10:35:51;;;;;;;6.72;6.20;;;22.80;99.90;;;24.13;71.95;98069.78;5211449;28;20248;-60
2022/06/04 10:38:43;;;;;;;7.75;7.18;;;22.80;99.90;;;23.99;74.33;98077.53;5215804;28;20646;-60
2022/06/04 10:41:21;;;;;;;8.10;7.50;;;22.80;99.90;;;24.01;76.85;98092.34;5214239;28;20680;-60
2022/06/04 10:44:42;;;;;;;7.82;7.13;;;22.80;99.90;;;23.80;76.01;98098.25;5222222;28;20693;-60
2022/06/04 10:47:26;;;;;;;7.82;7.32;;;22.70;99.90;;;23.79;75.43;98096.50;5214855;28;20271;-60
2022/06/04 10:50:31;;;;;;;8.77;8.07;;;22.60;99.90;;;23.64;76.20;98080.69;5212235;28;20244;-60
2022/06/04 10:53:18;;;;;;;8.77;8.18;;;22.40;99.90;;;23.59;76.95;98087.59;5202781;28;20245;-60
2022/06/04 10:55:57;;;;;;;8.50;7.90;;;22.40;99.90;;;23.52;79.03;98075.34;5216273;28;20232;-60
2022/06/04 10:58:39;;;;;;;10.20;9.40;;;22.40;99.90;;;23.29;82.98;98085.56;5224821;28;20274;-59
2022/06/04 11:01:26;;;;;;;9.65;9.05;;;22.40;99.90;;;23.36;84.43;98083.03;5215807;28;20233;-60
2022/06/04 11:04:12;;;;;;;9.50;8.93;;;22.50;99.90;;;23.29;84.90;98088.16;5214282;28;20901;-60
2022/06/04 11:06:51;;;;;;;10.10;9.38;;;22.50;99.90;;;23.28;85.38;98086.44;5215663;28;20728;-59
2022/06/04 11:09:33;;;;;;;9.57;8.77;;;22.50;99.90;;;23.26;85.72;98086.41;5215771;28;20284;-60
2022/06/04 11:12:34;;;;;;;10.45;9.65;;;22.50;99.90;;;23.26;85.97;98077.72;5218133;28;20268;-60
2022/06/04 11:15:14;;;;;;;10.40;9.70;;;22.50;99.90;;;23.27;86.74;98085.56;5214512;28;20209;-60